createdAt,value
2019-01-21T00:00:24.108Z,1039.76
2019-01-21T00:01:24.089Z,1039.76
2019-01-21T00:02:24.073Z,1039.74
2019-01-21T00:03:24.053Z,1039.79
2019-01-21T00:04:24.038Z,1039.86
2019-01-21T00:05:24.021Z,1039.91
2019-01-21T00:06:24.007Z,1039.94
2019-01-21T00:07:24.046Z,1040.02
2019-01-21T00:08:23.973Z,1040.06
2019-01-21T00:09:23.955Z,1040.08
2019-01-21T00:10:23.941Z,1040.1
2019-01-21T00:11:23.922Z,1040.12
2019-01-21T00:12:23.904Z,1040.13
2019-01-21T00:13:23.888Z,1040.15
2019-01-21T00:14:23.870Z,1040.11
2019-01-21T00:15:23.852Z,1040.12
2019-01-21T00:16:23.836Z,1040.03
2019-01-21T00:17:23.819Z,1040.03
2019-01-21T00:18:23.806Z,1040.03
2019-01-21T00:19:23.785Z,1040.05
2019-01-21T00:20:23.769Z,1040.03
2019-01-21T00:21:23.753Z,1040
2019-01-21T00:22:23.736Z,1040.02
2019-01-21T00:23:23.719Z,1040.02
2019-01-21T00:24:23.701Z,1040.02
2019-01-21T00:25:23.686Z,1040.04
2019-01-21T00:26:23.667Z,1040.13
2019-01-21T00:27:23.649Z,1040.1
2019-01-21T00:28:23.634Z,1040.14
2019-01-21T00:29:23.617Z,1040.16
2019-01-21T00:30:23.599Z,1040.17
2019-01-21T00:31:23.585Z,1040.12
2019-01-21T00:32:23.566Z,1040.04
2019-01-21T00:33:23.549Z,1040.02
2019-01-21T00:34:23.531Z,1039.96
2019-01-21T00:35:23.514Z,1039.98
2019-01-21T00:36:23.498Z,1039.98
2019-01-21T00:37:23.480Z,1040
2019-01-21T00:38:23.463Z,1040.03
2019-01-21T00:39:23.447Z,1040.01
2019-01-21T00:40:23.431Z,1039.97
2019-01-21T00:41:23.413Z,1039.97
2019-01-21T00:42:23.395Z,1039.93
2019-01-21T00:43:23.378Z,1039.92
2019-01-21T00:44:23.363Z,1039.91
2019-01-21T00:45:23.345Z,1039.9
2019-01-21T00:46:23.328Z,1039.85
2019-01-21T00:47:29.566Z,1039.87
2019-01-21T00:48:23.293Z,1039.9
2019-01-21T00:49:23.277Z,1039.9
2019-01-21T00:50:23.261Z,1039.84
2019-01-21T00:51:23.245Z,1039.79
2019-01-21T00:52:23.228Z,1039.78
2019-01-21T00:53:23.210Z,1039.82
2019-01-21T00:54:23.193Z,1039.78
2019-01-21T00:55:23.176Z,1039.74
2019-01-21T00:56:23.158Z,1039.69
2019-01-21T00:57:23.141Z,1039.7
2019-01-21T00:58:23.126Z,1039.72
2019-01-21T00:59:23.108Z,1039.77
2019-01-21T01:00:23.090Z,1039.8
2019-01-21T01:01:23.074Z,1039.82
2019-01-21T01:02:23.058Z,1039.79
2019-01-21T01:03:23.041Z,1039.8
2019-01-21T01:04:23.024Z,1039.81
2019-01-21T01:05:23.008Z,1039.83
2019-01-21T01:06:22.991Z,1039.8
2019-01-21T01:07:22.975Z,1039.8
2019-01-21T01:08:22.956Z,1039.77
2019-01-21T01:09:22.940Z,1039.82
2019-01-21T01:10:22.923Z,1039.78
2019-01-21T01:11:22.905Z,1039.81
2019-01-21T01:12:22.890Z,1039.74
2019-01-21T01:13:22.873Z,1039.72
2019-01-21T01:14:22.855Z,1039.7
2019-01-21T01:15:22.839Z,1039.65
2019-01-21T01:16:22.824Z,1039.66
2019-01-21T01:17:22.805Z,1039.64
2019-01-21T01:18:22.787Z,1039.65
2019-01-21T01:19:22.771Z,1039.66
2019-01-21T01:20:22.755Z,1039.7
2019-01-21T01:21:22.736Z,1039.68
2019-01-21T01:22:22.720Z,1039.67
2019-01-21T01:23:22.704Z,1039.66
2019-01-21T01:24:22.688Z,1039.68
2019-01-21T01:25:22.670Z,1039.68
2019-01-21T01:26:22.654Z,1039.68
2019-01-21T01:27:22.637Z,1039.68
2019-01-21T01:28:22.620Z,1039.73
2019-01-21T01:29:22.604Z,1039.76
2019-01-21T01:30:22.586Z,1039.76
2019-01-21T01:31:22.570Z,1039.76
2019-01-21T01:32:22.553Z,1039.77
2019-01-21T01:33:22.535Z,1039.79
2019-01-21T01:34:22.520Z,1039.79
2019-01-21T01:35:22.503Z,1039.8
2019-01-21T01:36:22.486Z,1039.81
2019-01-21T01:37:22.469Z,1039.88
2019-01-21T01:38:22.452Z,1039.86
2019-01-21T01:39:22.437Z,1039.93
2019-01-21T01:40:22.419Z,1039.95
2019-01-21T01:41:22.403Z,1040.05
2019-01-21T01:42:22.387Z,1040.13
2019-01-21T01:43:22.368Z,1040.15
2019-01-21T01:44:22.353Z,1040.18
2019-01-21T01:45:22.334Z,1040.19
2019-01-21T01:46:22.326Z,1040.16
2019-01-21T01:47:22.302Z,1040.11
2019-01-21T01:48:22.285Z,1040.09
2019-01-21T01:49:22.269Z,1040.06
2019-01-21T01:50:22.250Z,1040.06
2019-01-21T01:51:22.234Z,1039.99
2019-01-21T01:52:22.218Z,1040.02
2019-01-21T01:53:22.201Z,1040.03
2019-01-21T01:54:22.184Z,1040
2019-01-21T01:55:22.167Z,1039.99
2019-01-21T01:56:22.149Z,1039.97
2019-01-21T01:57:22.133Z,1039.93
2019-01-21T01:58:22.115Z,1039.93
2019-01-21T01:59:22.101Z,1039.93
2019-01-21T02:00:22.083Z,1039.93
2019-01-21T02:01:22.065Z,1039.95
2019-01-21T02:02:22.047Z,1039.99
2019-01-21T02:03:22.031Z,1039.98
2019-01-21T02:04:22.015Z,1039.99
2019-01-21T02:05:21.997Z,1039.96
2019-01-21T02:06:21.980Z,1039.95
2019-01-21T02:07:21.963Z,1039.92
2019-01-21T02:08:21.947Z,1039.88
2019-01-21T02:09:21.930Z,1039.88
2019-01-21T02:10:21.913Z,1039.88
2019-01-21T02:11:21.896Z,1039.86
2019-01-21T02:12:21.879Z,1039.89
2019-01-21T02:13:21.862Z,1039.89
2019-01-21T02:14:21.845Z,1039.9
2019-01-21T02:15:21.827Z,1039.86
2019-01-21T02:16:21.815Z,1039.88
2019-01-21T02:17:21.795Z,1039.86
2019-01-21T02:18:21.778Z,1039.85
2019-01-21T02:19:21.761Z,1039.82
2019-01-21T02:20:21.745Z,1039.83
2019-01-21T02:21:21.727Z,1039.86
2019-01-21T02:22:21.710Z,1039.84
2019-01-21T02:23:21.692Z,1039.83
2019-01-21T02:24:21.676Z,1039.86
2019-01-21T02:25:21.659Z,1039.89
2019-01-21T02:26:21.691Z,1039.89
2019-01-21T02:27:21.626Z,1039.9
2019-01-21T02:28:21.608Z,1039.94
2019-01-21T02:29:21.592Z,1039.93
2019-01-21T02:30:21.576Z,1039.94
2019-01-21T02:31:21.565Z,1039.95
2019-01-21T02:32:21.542Z,1039.98
2019-01-21T02:33:21.526Z,1039.95
2019-01-21T02:34:21.507Z,1039.93
2019-01-21T02:35:21.491Z,1039.9
2019-01-21T02:36:21.474Z,1039.9
2019-01-21T02:37:21.459Z,1039.86
2019-01-21T02:38:21.440Z,1039.81
2019-01-21T02:39:21.423Z,1039.79
2019-01-21T02:40:21.406Z,1039.76
2019-01-21T02:41:21.390Z,1039.77
2019-01-21T02:42:21.372Z,1039.78
2019-01-21T02:43:21.356Z,1039.69
2019-01-21T02:44:21.339Z,1039.68
2019-01-21T02:45:21.321Z,1039.68
2019-01-21T02:46:21.308Z,1039.64
2019-01-21T02:47:21.288Z,1039.64
2019-01-21T02:48:21.271Z,1039.65
2019-01-21T02:49:21.254Z,1039.62
2019-01-21T02:50:21.239Z,1039.6
2019-01-21T02:51:21.223Z,1039.63
2019-01-21T02:52:21.205Z,1039.58
2019-01-21T02:53:21.192Z,1039.55
2019-01-21T02:54:21.170Z,1039.61
2019-01-21T02:55:21.154Z,1039.63
2019-01-21T02:56:21.136Z,1039.61
2019-01-21T02:57:21.119Z,1039.66
2019-01-21T02:58:21.102Z,1039.67
2019-01-21T02:59:21.086Z,1039.7
2019-01-21T03:00:21.071Z,1039.78
2019-01-21T03:01:21.052Z,1039.75
2019-01-21T03:02:21.036Z,1039.77
2019-01-21T03:03:21.019Z,1039.8
2019-01-21T03:04:21.003Z,1039.75
2019-01-21T03:05:20.988Z,1039.75
2019-01-21T03:06:20.967Z,1039.71
2019-01-21T03:07:20.951Z,1039.69
2019-01-21T03:08:20.933Z,1039.65
2019-01-21T03:09:20.917Z,1039.57
2019-01-21T03:10:20.903Z,1039.58
2019-01-21T03:11:20.885Z,1039.56
2019-01-21T03:12:20.869Z,1039.51
2019-01-21T03:13:20.851Z,1039.54
2019-01-21T03:14:20.835Z,1039.53
2019-01-21T03:15:20.818Z,1039.6
2019-01-21T03:16:20.803Z,1039.62
2019-01-21T03:17:20.785Z,1039.58
2019-01-21T03:18:20.768Z,1039.56
2019-01-21T03:19:20.751Z,1039.56
2019-01-21T03:20:20.735Z,1039.53
2019-01-21T03:21:20.718Z,1039.57
2019-01-21T03:22:20.701Z,1039.62
2019-01-21T03:23:20.684Z,1039.66
2019-01-21T03:24:20.667Z,1039.63
2019-01-21T03:25:20.650Z,1039.68
2019-01-21T03:26:20.635Z,1039.65
2019-01-21T03:27:20.616Z,1039.69
2019-01-21T03:28:20.604Z,1039.69
2019-01-21T03:29:20.582Z,1039.71
2019-01-21T03:30:20.571Z,1039.69
2019-01-21T03:31:20.551Z,1039.7
2019-01-21T03:32:20.534Z,1039.67
2019-01-21T03:33:20.516Z,1039.71
2019-01-21T03:34:20.501Z,1039.7
2019-01-21T03:35:20.484Z,1039.69
2019-01-21T03:36:20.483Z,1039.67
2019-01-21T03:37:20.450Z,1039.68
2019-01-21T03:38:20.431Z,1039.66
2019-01-21T03:39:20.414Z,1039.69
2019-01-21T03:40:20.397Z,1039.67
2019-01-21T03:41:20.379Z,1039.7
2019-01-21T03:42:20.365Z,1039.77
2019-01-21T03:43:20.349Z,1039.78
2019-01-21T03:44:20.330Z,1039.74
2019-01-21T03:45:20.314Z,1039.73
2019-01-21T03:46:20.297Z,1039.72
2019-01-21T03:47:20.280Z,1039.72
2019-01-21T03:48:20.263Z,1039.71
2019-01-21T03:49:20.261Z,1039.67
2019-01-21T03:50:20.230Z,1039.64
2019-01-21T03:51:20.214Z,1039.65
2019-01-21T03:52:20.197Z,1039.61
2019-01-21T03:53:20.179Z,1039.57
2019-01-21T03:54:20.162Z,1039.59
2019-01-21T03:55:20.145Z,1039.61
2019-01-21T03:56:20.129Z,1039.6
2019-01-21T03:57:20.115Z,1039.57
2019-01-21T03:58:20.094Z,1039.61
2019-01-21T03:59:20.077Z,1039.57
2019-01-21T04:00:20.061Z,1039.6
2019-01-21T04:01:20.044Z,1039.56
2019-01-21T04:02:20.031Z,1039.58
2019-01-21T04:03:20.014Z,1039.56
2019-01-21T04:04:19.994Z,1039.59
2019-01-21T04:05:19.977Z,1039.59
2019-01-21T04:06:19.960Z,1039.63
2019-01-21T04:07:19.943Z,1039.62
2019-01-21T04:08:19.928Z,1039.63
2019-01-21T04:09:19.909Z,1039.65
2019-01-21T04:10:19.892Z,1039.66
2019-01-21T04:11:19.875Z,1039.64
2019-01-21T04:12:19.858Z,1039.65
2019-01-21T04:13:19.840Z,1039.63
2019-01-21T04:14:19.824Z,1039.66
2019-01-21T04:15:20.407Z,1039.69
2019-01-21T04:16:19.791Z,1039.65
2019-01-21T04:17:19.774Z,1039.68
2019-01-21T04:18:24.432Z,1039.71
2019-01-21T04:19:19.741Z,1039.69
2019-01-21T04:20:19.723Z,1039.66
2019-01-21T04:21:19.705Z,1039.65
2019-01-21T04:22:19.690Z,1039.67
2019-01-21T04:23:19.675Z,1039.68
2019-01-21T04:24:19.656Z,1039.72
2019-01-21T04:25:19.638Z,1039.69
2019-01-21T04:26:19.622Z,1039.71
2019-01-21T04:27:19.605Z,1039.71
2019-01-21T04:28:19.589Z,1039.7
2019-01-21T04:29:19.571Z,1039.7
2019-01-21T04:30:19.556Z,1039.71
2019-01-21T04:31:19.539Z,1039.72
2019-01-21T04:32:19.521Z,1039.7
2019-01-21T04:33:19.503Z,1039.65
2019-01-21T04:34:19.487Z,1039.66
2019-01-21T04:35:19.469Z,1039.66
2019-01-21T04:36:19.456Z,1039.65
2019-01-21T04:37:19.436Z,1039.64
2019-01-21T04:38:19.419Z,1039.61
2019-01-21T04:39:19.401Z,1039.64
2019-01-21T04:40:19.420Z,1039.59
2019-01-21T04:41:19.368Z,1039.61
2019-01-21T04:42:19.350Z,1039.59
2019-01-21T04:43:19.334Z,1039.53
2019-01-21T04:44:19.317Z,1039.49
2019-01-21T04:45:19.299Z,1039.51
2019-01-21T04:46:19.325Z,1039.53
2019-01-21T04:47:19.267Z,1039.56
2019-01-21T04:48:19.249Z,1039.55
2019-01-21T04:49:19.234Z,1039.51
2019-01-21T04:50:19.215Z,1039.58
2019-01-21T04:51:19.199Z,1039.58
2019-01-21T04:52:19.183Z,1039.66
2019-01-21T04:53:19.166Z,1039.66
2019-01-21T04:54:19.147Z,1039.67
2019-01-21T04:55:19.131Z,1039.66
2019-01-21T04:56:19.115Z,1039.59
2019-01-21T04:57:19.097Z,1039.54
2019-01-21T04:58:19.081Z,1039.53
2019-01-21T04:59:19.065Z,1039.53
2019-01-21T05:00:19.046Z,1039.5
2019-01-21T05:01:19.029Z,1039.51
2019-01-21T05:02:19.012Z,1039.53
2019-01-21T05:03:18.996Z,1039.54
2019-01-21T05:04:18.978Z,1039.6
2019-01-21T05:05:18.961Z,1039.58
2019-01-21T05:06:18.943Z,1039.58
2019-01-21T05:07:18.928Z,1039.61
2019-01-21T05:08:18.908Z,1039.63
2019-01-21T05:09:18.896Z,1039.6
2019-01-21T05:10:18.877Z,1039.63
2019-01-21T05:11:18.858Z,1039.6
2019-01-21T05:12:18.864Z,1039.65
2019-01-21T05:13:18.825Z,1039.61
2019-01-21T05:14:18.808Z,1039.63
2019-01-21T05:15:18.800Z,1039.64
2019-01-21T05:16:18.775Z,1039.66
2019-01-21T05:17:18.758Z,1039.67
2019-01-21T05:18:18.742Z,1039.7
2019-01-21T05:19:18.723Z,1039.74
2019-01-21T05:20:18.706Z,1039.71
2019-01-21T05:21:18.688Z,1039.78
2019-01-21T05:22:18.671Z,1039.76
2019-01-21T05:23:18.654Z,1039.77
2019-01-21T05:24:18.638Z,1039.76
2019-01-21T05:25:18.620Z,1039.76
2019-01-21T05:26:18.601Z,1039.77
2019-01-21T05:27:18.585Z,1039.77
2019-01-21T05:28:18.569Z,1039.77
2019-01-21T05:29:18.553Z,1039.73
2019-01-21T05:30:18.534Z,1039.7
2019-01-21T05:31:18.517Z,1039.74
2019-01-21T05:32:18.502Z,1039.77
2019-01-21T05:33:18.483Z,1039.79
2019-01-21T05:34:18.466Z,1039.84
2019-01-21T05:35:18.448Z,1039.78
2019-01-21T05:36:18.432Z,1039.76
2019-01-21T05:37:18.417Z,1039.78
2019-01-21T05:38:18.395Z,1039.75
2019-01-21T05:39:18.381Z,1039.78
2019-01-21T05:40:18.361Z,1039.76
2019-01-21T05:41:18.343Z,1039.73
2019-01-21T05:42:18.328Z,1039.72
2019-01-21T05:43:18.311Z,1039.68
2019-01-21T05:44:18.293Z,1039.63
2019-01-21T05:45:18.277Z,1039.63
2019-01-21T05:46:18.260Z,1039.6
2019-01-21T05:47:18.241Z,1039.54
2019-01-21T05:48:18.224Z,1039.57
2019-01-21T05:49:18.208Z,1039.59
2019-01-21T05:50:18.190Z,1039.57
2019-01-21T05:51:18.201Z,1039.63
2019-01-21T05:52:18.155Z,1039.66
2019-01-21T05:53:18.139Z,1039.72
2019-01-21T05:54:18.121Z,1039.7
2019-01-21T05:55:18.108Z,1039.81
2019-01-21T05:56:18.087Z,1039.84
2019-01-21T05:57:18.069Z,1039.89
2019-01-21T05:58:18.053Z,1039.86
2019-01-21T05:59:18.036Z,1039.85
2019-01-21T06:00:18.018Z,1039.86
2019-01-21T06:01:18.001Z,1039.81
2019-01-21T06:02:17.983Z,1039.84
2019-01-21T06:03:17.969Z,1039.76
2019-01-21T06:04:17.948Z,1039.77
2019-01-21T06:05:17.931Z,1039.8
2019-01-21T06:06:17.914Z,1039.76
2019-01-21T06:07:17.895Z,1039.85
2019-01-21T06:08:17.881Z,1039.8
2019-01-21T06:09:17.863Z,1039.86
2019-01-21T06:10:17.844Z,1039.86
2019-01-21T06:11:17.829Z,1039.85
2019-01-21T06:12:17.810Z,1039.82
2019-01-21T06:13:17.794Z,1039.85
2019-01-21T06:14:17.776Z,1039.86
2019-01-21T06:15:17.758Z,1039.8
2019-01-21T06:16:17.741Z,1039.79
2019-01-21T06:17:17.726Z,1039.85
2019-01-21T06:18:17.710Z,1039.84
2019-01-21T06:19:17.689Z,1039.89
2019-01-21T06:20:17.680Z,1039.88
2019-01-21T06:21:17.658Z,1039.86
2019-01-21T06:22:17.637Z,1039.86
2019-01-21T06:23:17.620Z,1039.85
2019-01-21T06:24:17.602Z,1039.84
2019-01-21T06:25:17.590Z,1039.84
2019-01-21T06:26:17.568Z,1039.81
2019-01-21T06:27:17.551Z,1039.8
2019-01-21T06:28:17.533Z,1039.87
2019-01-21T06:29:17.515Z,1039.94
2019-01-21T06:30:17.499Z,1039.96
2019-01-21T06:31:17.481Z,1039.95
2019-01-21T06:32:17.462Z,1039.98
2019-01-21T06:33:17.447Z,1040.01
2019-01-21T06:34:17.431Z,1039.98
2019-01-21T06:35:17.413Z,1040.01
2019-01-21T06:36:17.396Z,1039.99
2019-01-21T06:37:17.378Z,1040.01
2019-01-21T06:38:17.361Z,1040
2019-01-21T06:39:17.343Z,1040
2019-01-21T06:40:17.325Z,1039.96
2019-01-21T06:41:17.315Z,1040
2019-01-21T06:42:17.291Z,1039.96
2019-01-21T06:43:17.273Z,1039.95
2019-01-21T06:44:17.255Z,1039.98
2019-01-21T06:45:17.240Z,1039.93
2019-01-21T06:46:17.220Z,1039.96
2019-01-21T06:47:17.205Z,1040.04
2019-01-21T06:48:17.189Z,1040.04
2019-01-21T06:49:17.171Z,1040.06
2019-01-21T06:50:17.152Z,1040.06
2019-01-21T06:51:17.135Z,1040.11
2019-01-21T06:52:17.120Z,1040.12
2019-01-21T06:53:17.101Z,1040.17
2019-01-21T06:54:17.082Z,1040.21
2019-01-21T06:55:17.064Z,1040.19
2019-01-21T06:56:17.048Z,1040.21
2019-01-21T06:57:17.030Z,1040.17
2019-01-21T06:58:17.014Z,1040.19
2019-01-21T06:59:16.996Z,1040.14
2019-01-21T07:00:16.979Z,1040.14
2019-01-21T07:01:16.960Z,1040.11
2019-01-21T07:02:16.944Z,1040.06
2019-01-21T07:03:16.927Z,1040.06
2019-01-21T07:04:16.913Z,1040
2019-01-21T07:05:16.893Z,1039.96
2019-01-21T07:06:16.874Z,1039.98
2019-01-21T07:07:16.861Z,1039.97
2019-01-21T07:08:16.842Z,1039.98
2019-01-21T07:09:16.823Z,1039.94
2019-01-21T07:10:16.807Z,1039.96
2019-01-21T07:11:16.790Z,1039.96
2019-01-21T07:12:16.772Z,1039.96
2019-01-21T07:13:16.755Z,1039.97
2019-01-21T07:14:16.738Z,1039.98
2019-01-21T07:15:16.721Z,1039.88
2019-01-21T07:16:16.703Z,1039.91
2019-01-21T07:17:16.686Z,1039.98
2019-01-21T07:18:16.672Z,1040
2019-01-21T07:19:16.652Z,1039.96
2019-01-21T07:20:16.633Z,1039.94
2019-01-21T07:21:16.617Z,1039.96
2019-01-21T07:22:16.600Z,1040
2019-01-21T07:23:16.582Z,1040.02
2019-01-21T07:24:16.565Z,1039.99
2019-01-21T07:25:16.549Z,1040.02
2019-01-21T07:26:16.531Z,1040.04
2019-01-21T07:27:16.512Z,1040.06
2019-01-21T07:28:16.497Z,1040.12
2019-01-21T07:29:16.479Z,1040.11
2019-01-21T07:30:16.469Z,1040.11
2019-01-21T07:31:16.445Z,1040.13
2019-01-21T07:32:16.428Z,1040.1
2019-01-21T07:33:17.796Z,1040.13
2019-01-21T07:34:16.421Z,1040.12
2019-01-21T07:35:16.375Z,1040.15
2019-01-21T07:36:16.358Z,1040.18
2019-01-21T07:37:16.342Z,1040.26
2019-01-21T07:38:16.328Z,1040.34
2019-01-21T07:39:16.306Z,1040.36
2019-01-21T07:40:16.292Z,1040.34
2019-01-21T07:41:16.273Z,1040.36
2019-01-21T07:42:16.255Z,1040.44
2019-01-21T07:43:16.238Z,1040.42
2019-01-21T07:44:16.222Z,1040.39
2019-01-21T07:45:16.203Z,1040.35
2019-01-21T07:46:16.185Z,1040.34
2019-01-21T07:47:16.168Z,1040.27
2019-01-21T07:48:16.151Z,1040.27
2019-01-21T07:49:17.599Z,1040.3
2019-01-21T07:50:16.116Z,1040.3
2019-01-21T07:51:16.099Z,1040.29
2019-01-21T07:52:16.081Z,1040.3
2019-01-21T07:53:16.064Z,1040.34
2019-01-21T07:54:16.048Z,1040.34
2019-01-21T07:55:16.030Z,1040.26
2019-01-21T07:56:16.014Z,1040.24
2019-01-21T07:57:15.996Z,1040.23
2019-01-21T07:58:15.977Z,1040.26
2019-01-21T07:59:15.961Z,1040.21
2019-01-21T08:00:15.943Z,1040.24
2019-01-21T08:01:15.927Z,1040.26
2019-01-21T08:02:15.910Z,1040.25
2019-01-21T08:03:15.891Z,1040.29
2019-01-21T08:04:15.874Z,1040.23
2019-01-21T08:05:15.858Z,1040.18
2019-01-21T08:06:15.842Z,1040.14
2019-01-21T08:07:15.823Z,1040.17
2019-01-21T08:08:15.805Z,1040.2
2019-01-21T08:09:15.790Z,1040.17
2019-01-21T08:10:15.770Z,1040.17
2019-01-21T08:11:15.754Z,1040.12
2019-01-21T08:12:15.736Z,1040.06
2019-01-21T08:13:15.720Z,1040.04
2019-01-21T08:14:15.702Z,1039.99
2019-01-21T08:15:15.685Z,1039.94
2019-01-21T08:16:15.667Z,1039.9
2019-01-21T08:17:15.650Z,1039.87
2019-01-21T08:18:15.633Z,1039.88
2019-01-21T08:19:15.617Z,1039.85
2019-01-21T08:20:15.601Z,1039.78
2019-01-21T08:21:15.582Z,1039.77
2019-01-21T08:22:15.564Z,1039.72
2019-01-21T08:23:15.548Z,1039.72
2019-01-21T08:24:15.531Z,1039.68
2019-01-21T08:25:15.515Z,1039.68
2019-01-21T08:26:15.497Z,1039.63
2019-01-21T08:27:15.483Z,1039.62
2019-01-21T08:28:15.462Z,1039.6
2019-01-21T08:29:15.445Z,1039.61
2019-01-21T08:30:15.429Z,1039.66
2019-01-21T08:31:15.413Z,1039.68
2019-01-21T08:32:15.395Z,1039.64
2019-01-21T08:33:15.378Z,1039.61
2019-01-21T08:34:15.362Z,1039.59
2019-01-21T08:35:15.344Z,1039.55
2019-01-21T08:36:15.327Z,1039.55
2019-01-21T08:37:15.312Z,1039.56
2019-01-21T08:38:15.294Z,1039.54
2019-01-21T08:39:15.277Z,1039.54
2019-01-21T08:40:15.260Z,1039.53
2019-01-21T08:41:15.243Z,1039.45
2019-01-21T08:42:15.227Z,1039.46
2019-01-21T08:43:15.209Z,1039.39
2019-01-21T08:44:15.192Z,1039.37
2019-01-21T08:45:15.176Z,1039.39
2019-01-21T08:46:15.160Z,1039.38
2019-01-21T08:47:15.141Z,1039.39
2019-01-21T08:48:15.126Z,1039.39
2019-01-21T08:49:15.107Z,1039.38
2019-01-21T08:50:15.092Z,1039.38
2019-01-21T08:51:15.075Z,1039.34
2019-01-21T08:52:15.058Z,1039.35
2019-01-21T08:53:15.042Z,1039.35
2019-01-21T08:54:15.025Z,1039.38
2019-01-21T08:55:15.009Z,1039.4
2019-01-21T08:56:14.993Z,1039.37
2019-01-21T08:57:14.978Z,1039.41
2019-01-21T08:58:14.957Z,1039.39
2019-01-21T08:59:14.941Z,1039.44
2019-01-21T09:00:14.927Z,1039.38
2019-01-21T09:01:14.909Z,1039.4
2019-01-21T09:02:14.893Z,1039.37
2019-01-21T09:03:14.876Z,1039.35
2019-01-21T09:04:14.860Z,1039.35
2019-01-21T09:05:14.842Z,1039.32
2019-01-21T09:06:14.827Z,1039.26
2019-01-21T09:07:14.809Z,1039.26
2019-01-21T09:08:14.793Z,1039.22
2019-01-21T09:09:14.775Z,1039.15
2019-01-21T09:10:14.763Z,1039.21
2019-01-21T09:11:14.744Z,1039.19
2019-01-21T09:12:14.728Z,1039.19
2019-01-21T09:13:14.714Z,1039.17
2019-01-21T09:14:14.695Z,1039.16
2019-01-21T09:15:14.681Z,1039.16
2019-01-21T09:16:14.661Z,1039.18
2019-01-21T09:17:14.645Z,1039.12
2019-01-21T09:18:14.630Z,1039.07
2019-01-21T09:19:14.613Z,1039.1
2019-01-21T09:20:14.596Z,1039.08
2019-01-21T09:21:14.580Z,1039.08
2019-01-21T09:22:14.565Z,1039.15
2019-01-21T09:23:14.549Z,1039.14
2019-01-21T09:24:15.716Z,1039.18
2019-01-21T09:25:14.517Z,1039.16
2019-01-21T09:26:14.499Z,1039.15
2019-01-21T09:27:14.485Z,1039.15
2019-01-21T09:28:14.468Z,1039.19
2019-01-21T09:29:14.451Z,1039.23
2019-01-21T09:30:14.437Z,1039.26
2019-01-21T09:31:14.419Z,1039.33
2019-01-21T09:32:14.403Z,1039.26
2019-01-21T09:33:14.388Z,1039.21
2019-01-21T09:34:14.372Z,1039.19
2019-01-21T09:35:14.357Z,1039.1
2019-01-21T09:36:14.341Z,1039.01
2019-01-21T09:37:14.326Z,1038.97
2019-01-21T09:38:14.308Z,1038.93
2019-01-21T09:39:14.291Z,1038.88
2019-01-21T09:40:14.278Z,1038.82
2019-01-21T09:41:14.260Z,1038.81
2019-01-21T09:42:14.244Z,1038.71
2019-01-21T09:43:14.229Z,1038.62
2019-01-21T09:44:14.213Z,1038.58
2019-01-21T09:45:14.195Z,1038.56
2019-01-21T09:46:14.180Z,1038.5
2019-01-21T09:47:14.165Z,1038.46
2019-01-21T09:48:14.150Z,1038.41
2019-01-21T09:49:14.133Z,1038.35
2019-01-21T09:50:14.116Z,1038.37
2019-01-21T09:51:14.101Z,1038.35
2019-01-21T09:52:14.086Z,1038.35
2019-01-21T09:53:14.069Z,1038.43
2019-01-21T09:54:14.055Z,1038.48
2019-01-21T09:55:14.041Z,1038.49
2019-01-21T09:56:14.024Z,1038.49
2019-01-21T09:57:14.008Z,1038.49
2019-01-21T09:58:13.995Z,1038.51
2019-01-21T09:59:13.978Z,1038.52
2019-01-21T10:00:13.962Z,1038.5
2019-01-21T10:01:13.946Z,1038.51
2019-01-21T10:02:13.931Z,1038.49
2019-01-21T10:03:13.914Z,1038.45
2019-01-21T10:04:13.898Z,1038.4
2019-01-21T10:05:13.884Z,1038.38
2019-01-21T10:06:13.875Z,1038.42
2019-01-21T10:07:13.853Z,1038.41
2019-01-21T10:08:13.837Z,1038.37
2019-01-21T10:09:13.823Z,1038.35
2019-01-21T10:10:13.806Z,1038.31
2019-01-21T10:11:13.791Z,1038.27
2019-01-21T10:12:13.776Z,1038.25
2019-01-21T10:13:13.761Z,1038.2
2019-01-21T10:14:13.747Z,1038.19
2019-01-21T10:15:13.728Z,1038.2
2019-01-21T10:16:13.713Z,1038.21
2019-01-21T10:17:13.698Z,1038.19
2019-01-21T10:18:13.685Z,1038.18
2019-01-21T10:19:13.668Z,1038.18
2019-01-21T10:20:13.653Z,1038.22
2019-01-21T10:21:13.641Z,1038.26
2019-01-21T10:22:13.622Z,1038.25
2019-01-21T10:23:13.606Z,1038.19
2019-01-21T10:24:13.593Z,1038.14
2019-01-21T10:25:13.577Z,1038.12
2019-01-21T10:26:13.561Z,1038.03
2019-01-21T10:27:13.548Z,1038.07
2019-01-21T10:28:13.529Z,1038.12
2019-01-21T10:29:13.522Z,1038.16
2019-01-21T10:30:13.499Z,1038.16
2019-01-21T10:31:13.485Z,1038.16
2019-01-21T10:32:13.470Z,1038.17
2019-01-21T10:33:13.454Z,1038.14
2019-01-21T10:34:13.438Z,1038.19
2019-01-21T10:35:13.433Z,1038.15
2019-01-21T10:36:13.408Z,1038.09
2019-01-21T10:37:13.393Z,1037.97
2019-01-21T10:38:13.377Z,1037.98
2019-01-21T10:39:13.362Z,1037.92
2019-01-21T10:40:14.621Z,1037.85
2019-01-21T10:41:13.330Z,1037.82
2019-01-21T10:42:13.319Z,1037.8
2019-01-21T10:43:13.304Z,1037.79
2019-01-21T10:44:13.285Z,1037.79
2019-01-21T10:45:13.271Z,1037.81
2019-01-21T10:46:13.254Z,1037.83
2019-01-21T10:47:13.239Z,1037.86
2019-01-21T10:48:13.223Z,1037.9
2019-01-21T10:49:13.209Z,1037.93
2019-01-21T10:50:13.195Z,1037.97
2019-01-21T10:51:13.179Z,1037.96
2019-01-21T10:52:13.168Z,1037.94
2019-01-21T10:53:13.149Z,1037.9
2019-01-21T10:54:13.133Z,1037.93
2019-01-21T10:55:13.117Z,1037.93
2019-01-21T10:56:14.057Z,1037.94
2019-01-21T10:57:13.087Z,1037.92
2019-01-21T10:58:13.074Z,1037.91
2019-01-21T10:59:13.062Z,1037.88
2019-01-21T11:00:13.043Z,1037.85
2019-01-21T11:01:13.027Z,1037.86
2019-01-21T11:02:13.011Z,1037.86
2019-01-21T11:03:12.996Z,1037.81
2019-01-21T11:04:12.983Z,1037.76
2019-01-21T11:05:12.966Z,1037.73
2019-01-21T11:06:12.948Z,1037.74
2019-01-21T11:07:12.933Z,1037.67
2019-01-21T11:08:12.918Z,1037.7
2019-01-21T11:09:12.903Z,1037.65
2019-01-21T11:10:12.889Z,1037.58
2019-01-21T11:11:12.874Z,1037.6
2019-01-21T11:12:12.859Z,1037.57
2019-01-21T11:13:12.843Z,1037.61
2019-01-21T11:14:12.826Z,1037.61
2019-01-21T11:15:12.813Z,1037.68
2019-01-21T11:16:12.797Z,1037.72
2019-01-21T11:17:12.782Z,1037.7
2019-01-21T11:18:12.766Z,1037.67
2019-01-21T11:19:12.751Z,1037.69
2019-01-21T11:20:12.734Z,1037.67
2019-01-21T11:21:12.719Z,1037.65
2019-01-21T11:22:12.706Z,1037.59
2019-01-21T11:23:12.690Z,1037.52
2019-01-21T11:24:13.542Z,1037.4
2019-01-21T11:25:12.659Z,1037.41
2019-01-21T11:26:13.024Z,1037.36
2019-01-21T11:27:12.628Z,1037.32
2019-01-21T11:28:12.614Z,1037.24
2019-01-21T11:29:12.599Z,1037.26
2019-01-21T11:30:12.583Z,1037.27
2019-01-21T11:31:12.566Z,1037.24
2019-01-21T11:32:12.552Z,1037.29
2019-01-21T11:33:12.537Z,1037.26
2019-01-21T11:34:12.523Z,1037.28
2019-01-21T11:35:12.507Z,1037.26
2019-01-21T11:36:12.492Z,1037.27
2019-01-21T11:37:12.479Z,1037.41
2019-01-21T11:38:12.461Z,1037.44
2019-01-21T11:39:12.445Z,1037.42
2019-01-21T11:40:12.432Z,1037.42
2019-01-21T11:41:12.417Z,1037.38
2019-01-21T11:42:12.401Z,1037.37
2019-01-21T11:43:12.385Z,1037.37
2019-01-21T11:44:12.370Z,1037.4
2019-01-21T11:45:12.355Z,1037.29
2019-01-21T11:46:12.345Z,1037.16
2019-01-21T11:47:12.324Z,1037.18
2019-01-21T11:48:12.309Z,1037.08
2019-01-21T11:49:12.295Z,1037.01
2019-01-21T11:50:12.277Z,1036.9
2019-01-21T11:51:12.262Z,1036.85
2019-01-21T11:52:12.247Z,1036.79
2019-01-21T11:53:12.233Z,1036.72
2019-01-21T11:54:12.216Z,1036.63
2019-01-21T11:55:12.202Z,1036.51
2019-01-21T11:56:12.186Z,1036.43
2019-01-21T11:57:12.171Z,1036.43
2019-01-21T11:58:12.157Z,1036.39
2019-01-21T11:59:12.144Z,1036.43
2019-01-21T12:00:12.128Z,1036.57
2019-01-21T12:01:12.112Z,1036.64
2019-01-21T12:02:12.096Z,1036.73
2019-01-21T12:03:12.125Z,1036.71
2019-01-21T12:04:12.066Z,1036.7
2019-01-21T12:05:12.051Z,1036.73
2019-01-21T12:06:12.038Z,1036.73
2019-01-21T12:07:12.023Z,1036.7
2019-01-21T12:08:12.005Z,1036.68